createdAt,value
2022-08-03T00:01:27.184Z,2.40
2022-08-03T00:03:54.214Z,2.73
2022-08-03T00:06:21.182Z,2.47
2022-08-03T00:08:48.176Z,3.13
2022-08-03T00:11:15.007Z,3.00
2022-08-03T00:13:41.857Z,2.83
2022-08-03T00:16:09.195Z,2.53
2022-08-03T00:18:36.246Z,2.80
2022-08-03T00:21:03.999Z,2.40
2022-08-03T00:23:51.587Z,2.70
2022-08-03T00:26:17.911Z,2.90
2022-08-03T00:28:44.762Z,2.60
2022-08-03T00:31:13.492Z,2.77
2022-08-03T00:33:58.267Z,2.40
2022-08-03T00:36:27.303Z,2.57
2022-08-03T00:38:54.308Z,2.73
2022-08-03T00:41:21.574Z,2.57
2022-08-03T00:43:48.515Z,2.30
2022-08-03T00:46:21.033Z,2.67
2022-08-03T00:48:53.875Z,2.57
2022-08-03T00:51:22.507Z,2.97
2022-08-03T00:53:50.636Z,2.77
2022-08-03T00:56:18.195Z,2.90
2022-08-03T00:58:46.697Z,2.60
2022-08-03T01:01:14.465Z,2.60
2022-08-03T01:03:41.496Z,2.50
2022-08-03T01:06:18.792Z,2.77
2022-08-03T01:09:03.873Z,2.43
2022-08-03T01:12:00.618Z,2.70
2022-08-03T01:14:39.708Z,2.83
2022-08-03T01:17:19.343Z,3.20
2022-08-03T01:19:46.502Z,2.50
2022-08-03T01:22:50.140Z,2.60
2022-08-03T01:25:43.643Z,2.57
2022-08-03T01:28:28.875Z,2.50
2022-08-03T01:31:01.564Z,3.07
2022-08-03T01:33:37.243Z,2.10
2022-08-03T01:36:08.045Z,2.50
2022-08-03T01:38:38.666Z,2.70
2022-08-03T01:41:11.059Z,2.77
2022-08-03T01:43:55.266Z,3.07
2022-08-03T01:46:31.338Z,2.50
2022-08-03T01:48:59.809Z,3.20
2022-08-03T01:51:56.713Z,2.77
2022-08-03T01:54:16.744Z,2.70
2022-08-03T01:56:44.397Z,2.70
2022-08-03T01:59:12.653Z,2.67
2022-08-03T02:02:28.293Z,2.90
2022-08-03T02:04:29.312Z,3.17
2022-08-03T02:07:01.851Z,2.80
2022-08-03T02:09:31.011Z,2.90
2022-08-03T02:11:58.873Z,2.47
2022-08-03T02:14:28.294Z,2.53
2022-08-03T02:16:56.046Z,3.00
2022-08-03T02:19:24.925Z,3.40
2022-08-03T02:21:57.023Z,2.90
2022-08-03T02:24:29.022Z,3.10
2022-08-03T02:26:56.663Z,3.10
2022-08-03T02:29:39.734Z,3.07
2022-08-03T02:32:12.664Z,2.33
2022-08-03T02:34:42.502Z,2.80
2022-08-03T02:37:11.900Z,2.73
2022-08-03T02:39:41.857Z,2.90
2022-08-03T02:42:13.569Z,3.43
2022-08-03T02:44:43.839Z,2.37
2022-08-03T02:47:11.971Z,2.50
2022-08-03T02:49:50.515Z,2.30
2022-08-03T02:52:21.595Z,2.47
2022-08-03T02:54:51.988Z,2.80
2022-08-03T02:57:20.825Z,2.37
2022-08-03T02:59:48.263Z,2.57
2022-08-03T03:02:17.051Z,2.93
2022-08-03T03:05:51.701Z,2.53
2022-08-03T03:07:34.621Z,2.83
2022-08-03T03:10:24.677Z,2.50
2022-08-03T03:12:57.520Z,2.57
2022-08-03T03:15:26.987Z,2.50
2022-08-03T03:17:54.544Z,2.93
2022-08-03T03:20:28.934Z,2.70
2022-08-03T03:23:00.165Z,2.30
2022-08-03T03:25:36.536Z,2.90
2022-08-03T03:28:06.339Z,2.70
2022-08-03T03:30:34.059Z,2.47
2022-08-03T03:33:01.252Z,2.57
2022-08-03T03:35:28.734Z,2.43
2022-08-03T03:37:56.705Z,2.67
2022-08-03T03:40:24.334Z,3.23
2022-08-03T03:42:51.454Z,2.10
2022-08-03T03:45:18.779Z,2.50
2022-08-03T03:47:45.938Z,2.70
2022-08-03T03:50:12.917Z,3.90
2022-08-03T03:52:39.839Z,3.30
2022-08-03T03:55:07.359Z,2.93
2022-08-03T03:57:35.016Z,2.90
2022-08-03T04:00:02.003Z,3.07
2022-08-03T04:02:28.947Z,2.20
2022-08-03T04:05:14.253Z,3.00
2022-08-03T04:08:10.715Z,3.00
2022-08-03T04:11:00.129Z,2.10
2022-08-03T04:13:35.318Z,2.53
2022-08-03T04:16:03.210Z,2.43
2022-08-03T04:18:33.008Z,2.20
2022-08-03T04:21:04.045Z,2.53
2022-08-03T04:23:34.895Z,2.40
2022-08-03T04:26:04.558Z,2.53
2022-08-03T04:28:33.434Z,2.40
2022-08-03T04:31:02.394Z,2.60
2022-08-03T04:33:35.432Z,2.60
2022-08-03T04:36:07.262Z,2.63
2022-08-03T04:38:39.024Z,2.37
2022-08-03T04:41:08.046Z,2.93
2022-08-03T04:43:36.242Z,2.57
2022-08-03T04:46:04.565Z,2.10
2022-08-03T04:48:31.706Z,2.27
2022-08-03T04:51:00.863Z,2.50
2022-08-03T04:53:28.767Z,2.50
2022-08-03T04:55:55.643Z,2.30
2022-08-03T04:58:22.495Z,2.03
2022-08-03T05:00:51.412Z,2.03
2022-08-03T05:03:20.559Z,2.03
2022-08-03T05:06:07.973Z,2.10
2022-08-03T05:08:46.068Z,1.60
2022-08-03T05:11:15.752Z,2.43
2022-08-03T05:13:43.478Z,2.00
2022-08-03T05:16:10.533Z,1.97
2022-08-03T05:18:37.534Z,2.47
2022-08-03T05:21:05.125Z,2.13
2022-08-03T05:23:32.071Z,2.10
2022-08-03T05:25:59.016Z,2.10
2022-08-03T05:28:25.976Z,2.30
2022-08-03T05:30:52.915Z,2.47
2022-08-03T05:33:19.825Z,2.10
2022-08-03T05:36:02.639Z,2.00
2022-08-03T05:38:34.272Z,1.90
2022-08-03T05:41:21.270Z,2.30
2022-08-03T05:43:50.262Z,1.80
2022-08-03T05:46:17.127Z,2.17
2022-08-03T05:48:44.186Z,1.80
2022-08-03T05:51:13.823Z,2.00
2022-08-03T05:53:42.313Z,2.20
2022-08-03T05:56:15.278Z,1.87
2022-08-03T05:58:44.781Z,2.10
2022-08-03T06:01:11.791Z,2.10
2022-08-03T06:03:38.704Z,2.07
2022-08-03T06:06:05.690Z,1.80
2022-08-03T06:08:32.654Z,2.47
2022-08-03T06:10:59.682Z,2.00
2022-08-03T06:13:26.582Z,1.80
2022-08-03T06:15:53.525Z,2.70
2022-08-03T06:18:20.431Z,2.50
2022-08-03T06:20:47.322Z,2.00
2022-08-03T06:23:17.817Z,2.20
2022-08-03T06:25:45.928Z,2.43
2022-08-03T06:28:51.195Z,2.07
2022-08-03T06:31:03.660Z,2.10
2022-08-03T06:33:48.375Z,2.13
2022-08-03T06:36:20.642Z,2.00
2022-08-03T06:38:47.530Z,2.50
2022-08-03T06:41:14.400Z,2.90
2022-08-03T06:44:03.445Z,2.30
2022-08-03T06:46:29.394Z,2.27
2022-08-03T06:48:56.728Z,2.17
2022-08-03T06:52:03.000Z,2.10
2022-08-03T06:54:11.063Z,2.30
2022-08-03T06:56:38.057Z,2.30
2022-08-03T06:59:05.058Z,2.23
2022-08-03T07:01:31.972Z,2.03
2022-08-03T07:03:58.853Z,2.30
2022-08-03T07:06:26.002Z,2.00
2022-08-03T07:08:56.518Z,2.13
2022-08-03T07:11:26.168Z,2.40
2022-08-03T07:13:53.042Z,2.10
2022-08-03T07:16:20.151Z,2.30
2022-08-03T07:18:47.043Z,2.20
2022-08-03T07:21:14.030Z,2.33
2022-08-03T07:23:40.918Z,3.03
2022-08-03T07:26:07.838Z,2.07
2022-08-03T07:28:34.721Z,2.00
2022-08-03T07:31:01.639Z,2.20
2022-08-03T07:33:28.519Z,1.80
2022-08-03T07:35:55.383Z,1.97
2022-08-03T07:38:22.286Z,2.10
2022-08-03T07:40:49.342Z,1.53
2022-08-03T07:43:17.629Z,1.83
2022-08-03T07:45:44.599Z,2.00
2022-08-03T07:48:12.493Z,2.37
2022-08-03T07:50:39.727Z,1.97
2022-08-03T07:53:06.577Z,1.60
2022-08-03T07:55:33.721Z,2.00
2022-08-03T07:58:01.555Z,1.83
2022-08-03T08:00:28.708Z,1.90
2022-08-03T08:02:55.554Z,1.70
2022-08-03T08:05:22.520Z,1.90
2022-08-03T08:07:51.613Z,2.00
2022-08-03T08:10:19.240Z,2.00
2022-08-03T08:12:46.543Z,2.20
2022-08-03T08:15:13.582Z,2.10
2022-08-03T08:17:49.455Z,1.43
2022-08-03T08:20:28.160Z,2.27
2022-08-03T08:22:57.094Z,2.03
2022-08-03T08:25:25.472Z,1.90
2022-08-03T08:28:29.547Z,2.23
2022-08-03T08:30:39.912Z,2.20
2022-08-03T08:33:06.819Z,2.20
2022-08-03T08:35:33.744Z,2.23
2022-08-03T08:38:05.538Z,2.00
2022-08-03T08:40:32.937Z,2.20
2022-08-03T08:42:59.941Z,2.03
2022-08-03T08:45:27.791Z,1.73
2022-08-03T08:48:01.632Z,2.10
2022-08-03T08:50:31.085Z,1.80
2022-08-03T08:53:02.039Z,1.77
2022-08-03T08:55:29.760Z,1.87
2022-08-03T08:58:20.838Z,2.40
2022-08-03T09:00:48.585Z,2.00
2022-08-03T09:03:22.500Z,2.00
2022-08-03T09:06:01.463Z,1.70
2022-08-03T09:08:30.469Z,1.97
2022-08-03T09:10:57.965Z,1.90
2022-08-03T09:13:25.490Z,1.60
2022-08-03T09:16:16.138Z,2.07
2022-08-03T09:18:45.138Z,1.87
2022-08-03T09:21:31.642Z,1.97
2022-08-03T09:24:03.781Z,1.53
2022-08-03T09:26:32.259Z,2.20
2022-08-03T09:29:11.205Z,2.13
2022-08-03T09:31:45.768Z,1.67
2022-08-03T09:34:15.571Z,1.80
2022-08-03T09:36:48.052Z,2.00
2022-08-03T09:39:40.473Z,1.50
2022-08-03T09:42:09.406Z,1.60
2022-08-03T09:44:38.343Z,1.77
2022-08-03T09:47:09.974Z,1.70
2022-08-03T09:49:38.096Z,1.77
2022-08-03T09:52:39.437Z,1.60
2022-08-03T09:56:30.682Z,1.50
2022-08-03T09:58:09.555Z,1.47
2022-08-03T10:00:55.022Z,1.27
2022-08-03T10:03:22.560Z,1.80
2022-08-03T10:05:49.462Z,1.70
2022-08-03T10:08:19.244Z,1.60
2022-08-03T10:10:49.258Z,1.33
2022-08-03T10:13:19.781Z,1.57
2022-08-03T10:16:22.646Z,1.33
2022-08-03T10:18:34.250Z,1.67
2022-08-03T10:21:10.497Z,1.67
2022-08-03T10:23:38.877Z,1.50
2022-08-03T10:26:08.246Z,1.43
2022-08-03T10:28:42.799Z,1.83
2022-08-03T10:31:13.140Z,1.43
2022-08-03T10:33:51.060Z,1.67
2022-08-03T10:36:23.174Z,2.10
2022-08-03T10:38:56.620Z,1.50
2022-08-03T10:41:32.007Z,1.50
2022-08-03T10:44:11.119Z,1.50
2022-08-03T10:46:44.693Z,1.50
2022-08-03T10:49:16.696Z,1.70
2022-08-03T10:51:58.965Z,1.23
2022-08-03T10:55:03.541Z,1.30
2022-08-03T10:57:58.567Z,1.30
2022-08-03T11:00:28.503Z,1.50
2022-08-03T11:03:04.160Z,1.30
2022-08-03T11:05:36.674Z,1.20
2022-08-03T11:08:19.907Z,1.40
2022-08-03T11:10:49.081Z,1.10
2022-08-03T11:13:21.075Z,1.30
2022-08-03T11:15:51.760Z,1.33
2022-08-03T11:18:19.228Z,1.40
2022-08-03T11:20:54.535Z,1.20
2022-08-03T11:24:03.598Z,1.13
2022-08-03T11:26:32.934Z,1.17
2022-08-03T11:29:29.631Z,1.50
2022-08-03T11:31:57.156Z,1.27
2022-08-03T11:34:24.888Z,1.53
2022-08-03T11:37:23.663Z,1.10
2022-08-03T11:39:54.763Z,1.20
2022-08-03T11:42:24.793Z,1.30
2022-08-03T11:45:01.945Z,1.10
2022-08-03T11:47:30.010Z,1.00
2022-08-03T11:50:00.406Z,1.20
2022-08-03T11:52:34.019Z,1.00
2022-08-03T11:55:01.274Z,1.10
2022-08-03T11:59:16.990Z,1.23
2022-08-03T12:00:38.417Z,0.83
2022-08-03T12:03:11.890Z,1.10
2022-08-03T12:05:52.231Z,1.13
2022-08-03T12:08:40.553Z,1.10
2022-08-03T12:11:10.972Z,1.00
2022-08-03T12:14:35.821Z,1.20
2022-08-03T12:16:31.086Z,1.07
2022-08-03T12:19:05.181Z,1.17
2022-08-03T12:21:32.512Z,1.00
2022-08-03T12:24:05.692Z,1.10
2022-08-03T12:26:58.074Z,1.10
2022-08-03T12:29:26.378Z,1.20
2022-08-03T12:31:53.311Z,1.00
2022-08-03T12:34:20.283Z,1.03
2022-08-03T12:36:59.518Z,1.00
2022-08-03T12:39:31.030Z,1.00
2022-08-03T12:41:58.149Z,1.10
2022-08-03T12:44:36.188Z,1.00
2022-08-03T12:47:05.757Z,1.00
2022-08-03T12:49:50.277Z,1.13
2022-08-03T12:52:22.776Z,0.90
2022-08-03T12:55:00.689Z,1.10
2022-08-03T12:57:41.477Z,1.10
2022-08-03T13:00:21.409Z,1.10
2022-08-03T13:05:54.757Z,1.00
2022-08-03T13:08:25.704Z,1.10
2022-08-03T13:10:53.737Z,1.30
2022-08-03T13:13:39.567Z,1.20
2022-08-03T13:16:06.871Z,1.20
2022-08-03T13:18:33.754Z,1.27
2022-08-03T13:21:00.890Z,1.20
2022-08-03T13:23:27.842Z,1.20
2022-08-03T13:25:55.699Z,1.47
2022-08-03T13:28:23.357Z,1.20
2022-08-03T13:30:50.348Z,1.23
2022-08-03T13:33:17.668Z,1.10
2022-08-03T13:35:44.636Z,1.20
2022-08-03T13:38:11.694Z,0.97
2022-08-03T13:40:41.702Z,1.00
2022-08-03T13:43:09.069Z,1.23
2022-08-03T13:45:36.048Z,1.00
2022-08-03T13:48:02.943Z,1.20
2022-08-03T13:50:31.426Z,1.20
2022-08-03T13:52:58.718Z,1.50
2022-08-03T13:55:26.151Z,1.20
2022-08-03T13:58:05.171Z,1.17
2022-08-03T14:00:34.616Z,1.10
2022-08-03T14:03:10.780Z,1.43
2022-08-03T14:05:40.249Z,1.10
2022-08-03T14:08:08.075Z,1.40
2022-08-03T14:10:40.692Z,1.10
2022-08-03T14:13:08.889Z,1.40
2022-08-03T14:15:38.369Z,1.60
2022-08-03T14:18:07.374Z,1.27
2022-08-03T14:20:47.763Z,1.20
2022-08-03T14:23:17.965Z,1.20
2022-08-03T14:25:52.084Z,1.33
2022-08-03T14:28:24.993Z,1.20
2022-08-03T14:30:53.055Z,1.10
2022-08-03T14:33:20.674Z,1.20
2022-08-03T14:35:48.046Z,1.60
2022-08-03T14:38:15.365Z,1.10
2022-08-03T14:40:43.288Z,1.10
2022-08-03T14:43:10.511Z,1.10
2022-08-03T14:45:38.472Z,1.23
2022-08-03T14:50:29.094Z,1.40
2022-08-03T14:50:55.284Z,1.43
2022-08-03T14:53:23.228Z,1.17
2022-08-03T14:55:51.961Z,1.20
2022-08-03T14:58:23.556Z,1.40
2022-08-03T15:00:52.256Z,1.53
2022-08-03T15:03:23.684Z,1.47
2022-08-03T15:05:57.989Z,1.47
2022-08-03T15:08:26.324Z,1.50
2022-08-03T15:10:54.986Z,1.10
2022-08-03T15:13:22.493Z,1.20
2022-08-03T15:15:50.087Z,1.13
2022-08-03T15:18:17.062Z,1.50
2022-08-03T15:20:45.839Z,1.57
2022-08-03T15:23:15.236Z,1.43
2022-08-03T15:26:32.242Z,1.20
2022-08-03T15:28:30.399Z,1.70
2022-08-03T15:30:57.511Z,1.20
2022-08-03T15:33:24.350Z,1.30
2022-08-03T15:35:51.822Z,1.27
2022-08-03T15:38:19.070Z,1.37
2022-08-03T15:40:46.128Z,1.27
2022-08-03T15:43:13.010Z,1.20
2022-08-03T15:45:40.678Z,1.27
2022-08-03T15:48:09.035Z,1.33
2022-08-03T15:50:36.078Z,1.50
2022-08-03T15:53:03.483Z,1.47
2022-08-03T15:55:31.249Z,1.20
2022-08-03T15:59:09.787Z,1.20
2022-08-03T16:00:45.228Z,1.47
2022-08-03T16:03:12.120Z,1.30
2022-08-03T16:05:39.071Z,1.30
2022-08-03T16:08:10.268Z,1.67
2022-08-03T16:10:40.763Z,1.20
2022-08-03T16:13:08.057Z,1.30
2022-08-03T16:15:38.447Z,1.40
2022-08-03T16:18:09.010Z,1.30
2022-08-03T16:20:36.223Z,1.30
2022-08-03T16:23:10.847Z,1.50
2022-08-03T16:25:41.015Z,1.17
2022-08-03T16:28:13.944Z,1.10
2022-08-03T16:30:42.865Z,1.57
2022-08-03T16:33:10.752Z,1.17
2022-08-03T16:35:38.161Z,1.20
2022-08-03T16:38:09.963Z,1.13
2022-08-03T16:40:38.163Z,1.30
2022-08-03T16:43:18.456Z,1.10
2022-08-03T16:45:46.905Z,1.10
2022-08-03T16:48:14.532Z,1.23
2022-08-03T16:50:41.843Z,1.20
2022-08-03T16:53:10.073Z,1.20
2022-08-03T16:55:43.368Z,1.10
2022-08-03T16:58:34.789Z,1.30
2022-08-03T17:01:22.625Z,1.80
2022-08-03T17:04:04.709Z,1.20
2022-08-03T17:06:35.471Z,1.30
2022-08-03T17:09:20.846Z,1.20
2022-08-03T17:11:49.718Z,1.50
2022-08-03T17:14:21.737Z,1.50
2022-08-03T17:16:54.157Z,1.43
2022-08-03T17:19:23.711Z,1.40
2022-08-03T17:22:18.543Z,1.30
2022-08-03T17:24:49.934Z,1.53
2022-08-03T17:28:48.656Z,1.40
2022-08-03T17:30:15.863Z,1.27
2022-08-03T17:32:52.425Z,1.27
2022-08-03T17:35:34.413Z,1.60
2022-08-03T17:38:10.411Z,1.93
2022-08-03T17:40:43.083Z,1.70
2022-08-03T17:44:13.250Z,1.77
2022-08-03T17:46:10.622Z,1.67
2022-08-03T17:48:41.174Z,1.60
2022-08-03T17:51:23.664Z,1.97
2022-08-03T17:54:04.651Z,1.70
2022-08-03T17:56:57.200Z,1.63
2022-08-03T18:00:22.990Z,2.00
2022-08-03T18:03:16.351Z,2.03
2022-08-03T18:06:11.467Z,2.30
2022-08-03T18:08:42.803Z,1.57
2022-08-03T18:11:16.186Z,1.87
2022-08-03T18:14:16.269Z,1.70
2022-08-03T18:17:00.553Z,2.23
2022-08-03T18:20:00.938Z,2.03
2022-08-03T18:22:20.362Z,1.80
2022-08-03T18:24:49.794Z,2.07
2022-08-03T18:27:17.138Z,1.90
2022-08-03T18:29:47.530Z,2.23
2022-08-03T18:32:16.778Z,1.90
2022-08-03T18:34:53.009Z,1.87
2022-08-03T18:37:25.953Z,1.97
2022-08-03T18:39:58.025Z,2.00
2022-08-03T18:42:26.815Z,1.90
2022-08-03T18:44:56.250Z,1.50
2022-08-03T18:47:52.565Z,2.03
2022-08-03T18:50:34.902Z,2.30
2022-08-03T18:54:02.127Z,2.07
2022-08-03T18:56:45.136Z,1.70
2022-08-03T18:59:30.387Z,2.10
2022-08-03T19:02:06.053Z,2.10
2022-08-03T19:04:48.290Z,2.07
2022-08-03T19:07:25.946Z,2.13
2022-08-03T19:09:55.768Z,2.20
2022-08-03T19:12:41.995Z,2.30
2022-08-03T19:15:13.572Z,2.17
2022-08-03T19:17:53.060Z,2.13
2022-08-03T19:20:30.861Z,2.37
2022-08-03T19:22:59.514Z,2.57
2022-08-03T19:25:35.227Z,2.60
2022-08-03T19:28:05.870Z,2.40
2022-08-03T19:30:53.463Z,2.20
2022-08-03T19:33:22.838Z,2.20
2022-08-03T19:35:55.022Z,2.30
2022-08-03T19:38:28.145Z,2.37
2022-08-03T19:41:02.456Z,2.20
2022-08-03T19:43:52.914Z,2.30
2022-08-03T19:46:22.546Z,3.10
2022-08-03T19:48:59.524Z,2.27
2022-08-03T19:51:59.412Z,2.47
2022-08-03T19:54:29.317Z,2.30
2022-08-03T19:56:58.413Z,2.77
2022-08-03T19:59:26.408Z,2.40
2022-08-03T20:01:54.224Z,2.10
2022-08-03T20:04:22.502Z,2.60
2022-08-03T20:06:57.027Z,2.70
2022-08-03T20:09:24.991Z,2.43
2022-08-03T20:11:57.764Z,2.83
2022-08-03T20:14:26.441Z,2.40
2022-08-03T20:16:53.809Z,2.40
2022-08-03T20:19:22.994Z,2.90
2022-08-03T20:21:51.558Z,3.00
2022-08-03T20:24:28.052Z,2.30
2022-08-03T20:27:01.665Z,2.60
2022-08-03T20:30:04.955Z,2.00
2022-08-03T20:32:24.396Z,2.23
2022-08-03T20:34:53.020Z,1.90
2022-08-03T20:37:20.340Z,2.27
2022-08-03T20:39:49.651Z,2.40
2022-08-03T20:42:21.275Z,2.23
2022-08-03T20:45:04.750Z,2.33
2022-08-03T20:47:36.932Z,2.40
2022-08-03T20:50:18.363Z,2.47
2022-08-03T20:52:49.436Z,2.70
2022-08-03T20:55:18.820Z,2.50
2022-08-03T20:57:51.653Z,2.50
2022-08-03T21:00:19.554Z,2.90
2022-08-03T21:02:49.356Z,2.30
2022-08-03T21:05:16.255Z,2.20
2022-08-03T21:08:06.401Z,2.60
2022-08-03T21:10:38.413Z,2.17
2022-08-03T21:13:17.468Z,2.70
2022-08-03T21:16:11.484Z,2.50
2022-08-03T21:18:58.014Z,2.83
2022-08-03T21:21:27.871Z,2.50
2022-08-03T21:23:55.381Z,2.50
2022-08-03T21:26:24.583Z,2.80
2022-08-03T21:28:52.956Z,2.50
2022-08-03T21:31:24.217Z,2.40
2022-08-03T21:33:55.619Z,2.50
2022-08-03T21:36:23.362Z,2.47
2022-08-03T21:38:56.155Z,2.60
2022-08-03T21:41:28.179Z,2.23
2022-08-03T21:43:55.752Z,2.30
2022-08-03T21:46:23.801Z,2.13
2022-08-03T21:50:05.166Z,2.60
2022-08-03T21:51:50.292Z,2.40
2022-08-03T21:54:20.029Z,2.67
2022-08-03T21:56:51.023Z,2.50
2022-08-03T21:59:20.120Z,2.70
2022-08-03T22:01:49.033Z,3.07
2022-08-03T22:04:50.337Z,2.50
2022-08-03T22:07:08.555Z,2.50
2022-08-03T22:09:36.311Z,2.40
2022-08-03T22:12:03.969Z,2.20
2022-08-03T22:14:33.218Z,1.83
2022-08-03T22:17:03.422Z,2.90
2022-08-03T22:19:34.267Z,2.00
2022-08-03T22:22:04.653Z,2.60
2022-08-03T22:24:32.751Z,2.70
2022-08-03T22:27:21.293Z,2.20
2022-08-03T22:29:51.013Z,2.60
2022-08-03T22:32:17.971Z,3.10
2022-08-03T22:34:47.365Z,2.87
2022-08-03T22:37:16.811Z,2.30
2022-08-03T22:39:45.002Z,3.10
2022-08-03T22:42:13.228Z,2.60
2022-08-03T22:44:40.601Z,2.50
2022-08-03T22:47:09.679Z,2.53
2022-08-03T22:49:37.885Z,2.50
2022-08-03T22:52:05.879Z,3.27
2022-08-03T22:54:33.160Z,2.60
2022-08-03T22:57:00.707Z,2.50
2022-08-03T22:59:39.260Z,3.10
2022-08-03T23:02:20.973Z,2.67
2022-08-03T23:04:57.440Z,2.37
2022-08-03T23:07:33.296Z,2.30
2022-08-03T23:10:01.940Z,2.60
2022-08-03T23:12:32.431Z,2.97
2022-08-03T23:15:02.724Z,2.67
2022-08-03T23:17:32.830Z,2.50
2022-08-03T23:20:07.491Z,3.23
2022-08-03T23:22:38.352Z,2.57
2022-08-03T23:25:10.755Z,2.40
2022-08-03T23:27:42.138Z,2.63
2022-08-03T23:30:10.244Z,2.53
2022-08-03T23:32:37.738Z,2.47
2022-08-03T23:36:27.630Z,2.70
2022-08-03T23:38:22.263Z,2.70
2022-08-03T23:40:51.310Z,3.07
2022-08-03T23:43:45.143Z,2.40
2022-08-03T23:46:08.348Z,2.53
2022-08-03T23:48:35.294Z,2.30
2022-08-03T23:51:28.067Z,2.23
2022-08-03T23:54:19.642Z,2.37
2022-08-03T23:56:59.436Z,2.50
2022-08-03T23:59:37.918Z,2.40
